sensor_id;sensor_type;location;lat;lon;timestamp;temperature;humidity
4081;DHT22;2055;50.074;8.436;2023-07-20T00:00:13;17.50;99.90
4081;DHT22;2055;50.074;8.436;2023-07-20T00:02:39;18.00;99.90
4081;DHT22;2055;50.074;8.436;2023-07-20T00:05:05;17.90;99.90
4081;DHT22;2055;50.074;8.436;2023-07-20T00:07:31;18.10;99.90
4081;DHT22;2055;50.074;8.436;2023-07-20T00:09:57;18.10;99.90
4081;DHT22;2055;50.074;8.436;2023-07-20T00:12:22;18.00;99.90
4081;DHT22;2055;50.074;8.436;2023-07-20T00:14:48;17.80;99.90
4081;DHT22;2055;50.074;8.436;2023-07-20T00:17:13;17.80;99.90
4081;DHT22;2055;50.074;8.436;2023-07-20T00:19:39;17.70;99.90
4081;DHT22;2055;50.074;8.436;2023-07-20T00:22:04;17.50;99.90
4081;DHT22;2055;50.074;8.436;2023-07-20T00:24:30;17.50;99.90
4081;DHT22;2055;50.074;8.436;2023-07-20T00:26:56;17.30;99.90
4081;DHT22;2055;50.074;8.436;2023-07-20T00:29:21;17.50;99.90
4081;DHT22;2055;50.074;8.436;2023-07-20T00:31:47;17.10;99.90
4081;DHT22;2055;50.074;8.436;2023-07-20T00:34:13;17.10;99.90
4081;DHT22;2055;50.074;8.436;2023-07-20T00:36:38;15.70;99.90
4081;DHT22;2055;50.074;8.436;2023-07-20T00:39:04;16.90;99.90
4081;DHT22;2055;50.074;8.436;2023-07-20T00:41:29;16.80;99.90
4081;DHT22;2055;50.074;8.436;2023-07-20T00:43:55;16.90;99.90
4081;DHT22;2055;50.074;8.436;2023-07-20T00:46:23;16.80;99.90
4081;DHT22;2055;50.074;8.436;2023-07-20T00:48:50;16.80;99.90
4081;DHT22;2055;50.074;8.436;2023-07-20T00:51:15;16.80;99.90
4081;DHT22;2055;50.074;8.436;2023-07-20T00:53:44;16.70;99.90
4081;DHT22;2055;50.074;8.436;2023-07-20T00:56:09;16.70;99.90
4081;DHT22;2055;50.074;8.436;2023-07-20T00:58:35;16.60;99.90
4081;DHT22;2055;50.074;8.436;2023-07-20T01:01:01;16.80;99.90
4081;DHT22;2055;50.074;8.436;2023-07-20T01:03:26;16.70;99.90
4081;DHT22;2055;50.074;8.436;2023-07-20T01:08:57;16.60;99.90
4081;DHT22;2055;50.074;8.436;2023-07-20T01:11:38;16.70;99.90
4081;DHT22;2055;50.074;8.436;2023-07-20T01:14:05;16.90;99.90
4081;DHT22;2055;50.074;8.436;2023-07-20T01:16:32;16.50;99.90
4081;DHT22;2055;50.074;8.436;2023-07-20T01:18:57;16.50;99.90
4081;DHT22;2055;50.074;8.436;2023-07-20T01:21:40;16.40;99.90
4081;DHT22;2055;50.074;8.436;2023-07-20T01:24:39;16.30;99.90
4081;DHT22;2055;50.074;8.436;2023-07-20T01:30:14;16.20;99.90
4081;DHT22;2055;50.074;8.436;2023-07-20T01:32:42;16.10;99.90
4081;DHT22;2055;50.074;8.436;2023-07-20T01:35:10;16.00;99.90
4081;DHT22;2055;50.074;8.436;2023-07-20T01:37:40;16.00;99.90
4081;DHT22;2055;50.074;8.436;2023-07-20T01:40:07;15.90;99.90
4081;DHT22;2055;50.074;8.436;2023-07-20T01:42:36;15.90;99.90
4081;DHT22;2055;50.074;8.436;2023-07-20T01:45:01;15.80;99.90
4081;DHT22;2055;50.074;8.436;2023-07-20T01:47:27;15.80;99.90
4081;DHT22;2055;50.074;8.436;2023-07-20T01:49:52;15.80;99.90
4081;DHT22;2055;50.074;8.436;2023-07-20T01:52:18;15.70;99.90
4081;DHT22;2055;50.074;8.436;2023-07-20T01:54:43;15.60;99.90
4081;DHT22;2055;50.074;8.436;2023-07-20T01:57:09;15.50;99.90
4081;DHT22;2055;50.074;8.436;2023-07-20T01:59:34;15.60;99.90
4081;DHT22;2055;50.074;8.436;2023-07-20T02:02:00;15.40;99.90
4081;DHT22;2055;50.074;8.436;2023-07-20T02:04:25;15.20;99.90
4081;DHT22;2055;50.074;8.436;2023-07-20T02:06:51;15.20;99.90
4081;DHT22;2055;50.074;8.436;2023-07-20T02:09:16;15.20;99.90
4081;DHT22;2055;50.074;8.436;2023-07-20T02:11:42;15.20;99.90
4081;DHT22;2055;50.074;8.436;2023-07-20T02:14:07;15.20;99.90
4081;DHT22;2055;50.074;8.436;2023-07-20T02:16:33;15.20;99.90
4081;DHT22;2055;50.074;8.436;2023-07-20T02:18:59;15.20;99.90
4081;DHT22;2055;50.074;8.436;2023-07-20T02:21:24;15.10;99.90
4081;DHT22;2055;50.074;8.436;2023-07-20T02:23:50;15.10;99.90
4081;DHT22;2055;50.074;8.436;2023-07-20T02:26:15;15.10;99.90
4081;DHT22;2055;50.074;8.436;2023-07-20T02:28:41;15.10;99.90
4081;DHT22;2055;50.074;8.436;2023-07-20T02:31:07;15.30;99.90
4081;DHT22;2055;50.074;8.436;2023-07-20T02:33:32;15.10;99.90
4081;DHT22;2055;50.074;8.436;2023-07-20T02:35:58;15.20;99.90
4081;DHT22;2055;50.074;8.436;2023-07-20T02:38:23;15.20;99.90
4081;DHT22;2055;50.074;8.436;2023-07-20T02:40:49;15.20;99.90
4081;DHT22;2055;50.074;8.436;2023-07-20T02:43:15;15.20;99.90
4081;DHT22;2055;50.074;8.436;2023-07-20T02:45:41;15.20;99.90
4081;DHT22;2055;50.074;8.436;2023-07-20T02:48:08;15.10;99.90
4081;DHT22;2055;50.074;8.436;2023-07-20T02:50:33;15.20;99.90
4081;DHT22;2055;50.074;8.436;2023-07-20T02:53:00;15.20;99.90
4081;DHT22;2055;50.074;8.436;2023-07-20T02:55:25;15.20;99.90
4081;DHT22;2055;50.074;8.436;2023-07-20T02:57:51;15.30;99.90
4081;DHT22;2055;50.074;8.436;2023-07-20T03:00:16;15.50;99.90
4081;DHT22;2055;50.074;8.436;2023-07-20T03:02:45;15.30;99.90
4081;DHT22;2055;50.074;8.436;2023-07-20T03:05:15;15.30;99.90
4081;DHT22;2055;50.074;8.436;2023-07-20T03:07:42;15.20;99.90
4081;DHT22;2055;50.074;8.436;2023-07-20T03:10:09;15.20;99.90
4081;DHT22;2055;50.074;8.436;2023-07-20T03:12:35;15.30;99.90
4081;DHT22;2055;50.074;8.436;2023-07-20T03:15:04;15.50;99.90
4081;DHT22;2055;50.074;8.436;2023-07-20T03:17:30;15.60;99.90
4081;DHT22;2055;50.074;8.436;2023-07-20T03:19:55;15.60;99.90
4081;DHT22;2055;50.074;8.436;2023-07-20T03:22:21;15.70;99.90
4081;DHT22;2055;50.074;8.436;2023-07-20T03:24:47;15.70;99.90
4081;DHT22;2055;50.074;8.436;2023-07-20T03:27:13;15.70;99.90
4081;DHT22;2055;50.074;8.436;2023-07-20T03:29:38;15.70;99.90
4081;DHT22;2055;50.074;8.436;2023-07-20T03:32:04;15.70;99.90
4081;DHT22;2055;50.074;8.436;2023-07-20T03:34:30;15.90;99.90
4081;DHT22;2055;50.074;8.436;2023-07-20T03:36:56;15.80;99.90
4081;DHT22;2055;50.074;8.436;2023-07-20T03:39:22;15.80;99.90
4081;DHT22;2055;50.074;8.436;2023-07-20T03:41:48;15.60;99.90
4081;DHT22;2055;50.074;8.436;2023-07-20T03:44:13;15.40;99.90
4081;DHT22;2055;50.074;8.436;2023-07-20T03:46:39;15.30;99.90
4081;DHT22;2055;50.074;8.436;2023-07-20T03:49:04;15.20;99.90
4081;DHT22;2055;50.074;8.436;2023-07-20T03:51:31;15.10;99.90
4081;DHT22;2055;50.074;8.436;2023-07-20T03:53:57;15.00;99.90
4081;DHT22;2055;50.074;8.436;2023-07-20T03:56:23;15.00;99.90
4081;DHT22;2055;50.074;8.436;2023-07-20T03:58:49;15.00;99.90
4081;DHT22;2055;50.074;8.436;2023-07-20T04:01:15;15.00;99.90
4081;DHT22;2055;50.074;8.436;2023-07-20T04:03:42;14.90;99.90
4081;DHT22;2055;50.074;8.436;2023-07-20T04:06:08;14.90;99.90
4081;DHT22;2055;50.074;8.436;2023-07-20T04:08:35;14.80;99.90
4081;DHT22;2055;50.074;8.436;2023-07-20T04:11:03;14.90;99.90
4081;DHT22;2055;50.074;8.436;2023-07-20T04:13:30;14.80;99.90
4081;DHT22;2055;50.074;8.436;2023-07-20T04:15:58;14.90;99.90
4081;DHT22;2055;50.074;8.436;2023-07-20T04:18:24;14.90;99.90
4081;DHT22;2055;50.074;8.436;2023-07-20T04:20:49;14.90;99.90
4081;DHT22;2055;50.074;8.436;2023-07-20T04:23:15;14.90;99.90
4081;DHT22;2055;50.074;8.436;2023-07-20T04:25:41;14.90;99.90
4081;DHT22;2055;50.074;8.436;2023-07-20T04:28:07;14.90;99.90
4081;DHT22;2055;50.074;8.436;2023-07-20T04:30:35;15.00;99.90
4081;DHT22;2055;50.074;8.436;2023-07-20T04:33:01;14.90;99.90
4081;DHT22;2055;50.074;8.436;2023-07-20T04:35:52;14.90;99.90
4081;DHT22;2055;50.074;8.436;2023-07-20T04:38:19;15.00;99.90
4081;DHT22;2055;50.074;8.436;2023-07-20T04:40:47;15.20;99.90
4081;DHT22;2055;50.074;8.436;2023-07-20T04:43:14;15.30;99.90
4081;DHT22;2055;50.074;8.436;2023-07-20T04:45:39;15.40;99.90
4081;DHT22;2055;50.074;8.436;2023-07-20T04:48:09;15.40;99.90
4081;DHT22;2055;50.074;8.436;2023-07-20T04:50:35;15.50;99.90
4081;DHT22;2055;50.074;8.436;2023-07-20T04:53:02;15.50;99.90
4081;DHT22;2055;50.074;8.436;2023-07-20T04:55:28;15.50;99.90
4081;DHT22;2055;50.074;8.436;2023-07-20T04:57:53;15.60;99.90
4081;DHT22;2055;50.074;8.436;2023-07-20T05:00:19;15.60;99.90
4081;DHT22;2055;50.074;8.436;2023-07-20T05:02:45;15.80;99.90
4081;DHT22;2055;50.074;8.436;2023-07-20T05:05:12;15.90;99.90
4081;DHT22;2055;50.074;8.436;2023-07-20T05:07:38;16.10;99.90
4081;DHT22;2055;50.074;8.436;2023-07-20T05:10:04;16.20;99.90
4081;DHT22;2055;50.074;8.436;2023-07-20T05:12:30;16.30;99.90
4081;DHT22;2055;50.074;8.436;2023-07-20T05:14:55;16.40;99.90
4081;DHT22;2055;50.074;8.436;2023-07-20T05:17:21;16.60;99.90
4081;DHT22;2055;50.074;8.436;2023-07-20T05:19:46;16.70;99.90
4081;DHT22;2055;50.074;8.436;2023-07-20T05:22:13;16.80;99.90
4081;DHT22;2055;50.074;8.436;2023-07-20T05:24:39;16.80;99.90
4081;DHT22;2055;50.074;8.436;2023-07-20T05:27:05;16.80;99.90
4081;DHT22;2055;50.074;8.436;2023-07-20T05:29:31;16.80;99.90
4081;DHT22;2055;50.074;8.436;2023-07-20T05:31:57;16.90;99.90
4081;DHT22;2055;50.074;8.436;2023-07-20T05:34:22;16.90;99.90
4081;DHT22;2055;50.074;8.436;2023-07-20T05:36:49;16.90;99.90
4081;DHT22;2055;50.074;8.436;2023-07-20T05:39:17;16.90;99.90
4081;DHT22;2055;50.074;8.436;2023-07-20T05:41:43;17.00;99.90
4081;DHT22;2055;50.074;8.436;2023-07-20T05:44:09;17.00;99.90
4081;DHT22;2055;50.074;8.436;2023-07-20T05:46:34;17.00;99.90
4081;DHT22;2055;50.074;8.436;2023-07-20T05:49:00;17.00;99.90
4081;DHT22;2055;50.074;8.436;2023-07-20T05:51:26;17.10;99.90
4081;DHT22;2055;50.074;8.436;2023-07-20T05:53:51;17.20;99.90
4081;DHT22;2055;50.074;8.436;2023-07-20T05:56:17;17.20;99.90
4081;DHT22;2055;50.074;8.436;2023-07-20T05:58:42;17.30;99.90
4081;DHT22;2055;50.074;8.436;2023-07-20T06:01:08;17.40;99.90
4081;DHT22;2055;50.074;8.436;2023-07-20T06:03:34;17.40;99.90
4081;DHT22;2055;50.074;8.436;2023-07-20T06:06:02;17.40;99.90
4081;DHT22;2055;50.074;8.436;2023-07-20T06:08:32;16.80;99.90
4081;DHT22;2055;50.074;8.436;2023-07-20T06:10:58;17.40;99.90
4081;DHT22;2055;50.074;8.436;2023-07-20T06:13:23;17.60;99.90
4081;DHT22;2055;50.074;8.436;2023-07-20T06:15:56;17.60;99.90
4081;DHT22;2055;50.074;8.436;2023-07-20T06:18:24;17.80;99.90
4081;DHT22;2055;50.074;8.436;2023-07-20T06:20:51;17.90;99.90
4081;DHT22;2055;50.074;8.436;2023-07-20T06:23:19;17.90;99.90
4081;DHT22;2055;50.074;8.436;2023-07-20T06:25:45;18.10;99.90
4081;DHT22;2055;50.074;8.436;2023-07-20T06:28:11;18.30;99.90
4081;DHT22;2055;50.074;8.436;2023-07-20T06:30:36;18.30;99.90
4081;DHT22;2055;50.074;8.436;2023-07-20T06:33:02;18.30;99.90
4081;DHT22;2055;50.074;8.436;2023-07-20T06:35:28;18.20;99.90
4081;DHT22;2055;50.074;8.436;2023-07-20T06:37:53;18.30;99.90
4081;DHT22;2055;50.074;8.436;2023-07-20T06:40:22;18.50;99.90
4081;DHT22;2055;50.074;8.436;2023-07-20T06:42:48;18.60;99.90
4081;DHT22;2055;50.074;8.436;2023-07-20T06:45:14;18.20;99.90
4081;DHT22;2055;50.074;8.436;2023-07-20T06:47:40;18.50;99.90
4081;DHT22;2055;50.074;8.436;2023-07-20T06:50:09;18.30;99.90
4081;DHT22;2055;50.074;8.436;2023-07-20T06:52:35;18.80;99.90
4081;DHT22;2055;50.074;8.436;2023-07-20T06:55:00;19.00;99.90
4081;DHT22;2055;50.074;8.436;2023-07-20T06:57:26;19.20;99.90
4081;DHT22;2055;50.074;8.436;2023-07-20T06:59:52;19.50;99.90
4081;DHT22;2055;50.074;8.436;2023-07-20T07:02:18;19.70;99.90
4081;DHT22;2055;50.074;8.436;2023-07-20T07:04:44;19.90;99.90
4081;DHT22;2055;50.074;8.436;2023-07-20T07:07:10;20.00;99.90
4081;DHT22;2055;50.074;8.436;2023-07-20T07:09:42;19.50;99.90
4081;DHT22;2055;50.074;8.436;2023-07-20T07:12:18;19.40;99.90
4081;DHT22;2055;50.074;8.436;2023-07-20T07:14:43;19.30;99.90
4081;DHT22;2055;50.074;8.436;2023-07-20T07:17:09;19.70;99.90
4081;DHT22;2055;50.074;8.436;2023-07-20T07:19:35;20.00;99.90
4081;DHT22;2055;50.074;8.436;2023-07-20T07:22:01;20.00;99.90
4081;DHT22;2055;50.074;8.436;2023-07-20T07:24:27;20.10;99.90
4081;DHT22;2055;50.074;8.436;2023-07-20T07:27:01;20.20;99.90
4081;DHT22;2055;50.074;8.436;2023-07-20T07:29:27;20.40;99.90
4081;DHT22;2055;50.074;8.436;2023-07-20T07:31:53;20.60;99.90
4081;DHT22;2055;50.074;8.436;2023-07-20T07:34:19;20.60;99.90
4081;DHT22;2055;50.074;8.436;2023-07-20T07:36:44;20.10;99.90
4081;DHT22;2055;50.074;8.436;2023-07-20T07:39:11;19.90;99.90
4081;DHT22;2055;50.074;8.436;2023-07-20T07:41:37;19.90;99.90
4081;DHT22;2055;50.074;8.436;2023-07-20T07:44:02;19.80;99.90
4081;DHT22;2055;50.074;8.436;2023-07-20T07:46:28;19.30;99.90
4081;DHT22;2055;50.074;8.436;2023-07-20T07:48:53;19.30;99.90
4081;DHT22;2055;50.074;8.436;2023-07-20T07:51:19;19.60;99.90
4081;DHT22;2055;50.074;8.436;2023-07-20T07:53:46;19.70;99.90
4081;DHT22;2055;50.074;8.436;2023-07-20T07:56:12;20.40;99.90
4081;DHT22;2055;50.074;8.436;2023-07-20T07:58:37;20.80;99.90
4081;DHT22;2055;50.074;8.436;2023-07-20T08:01:04;20.90;99.90
4081;DHT22;2055;50.074;8.436;2023-07-20T08:03:30;21.40;99.90
4081;DHT22;2055;50.074;8.436;2023-07-20T08:05:55;21.50;99.90
4081;DHT22;2055;50.074;8.436;2023-07-20T08:08:22;21.30;99.90
4081;DHT22;2055;50.074;8.436;2023-07-20T08:10:50;20.90;99.90
4081;DHT22;2055;50.074;8.436;2023-07-20T08:13:15;21.00;99.90
4081;DHT22;2055;50.074;8.436;2023-07-20T08:15:48;20.40;99.90
4081;DHT22;2055;50.074;8.436;2023-07-20T08:18:14;20.70;99.90
4081;DHT22;2055;50.074;8.436;2023-07-20T08:20:43;20.60;99.90
4081;DHT22;2055;50.074;8.436;2023-07-20T08:23:09;20.80;99.90
4081;DHT22;2055;50.074;8.436;2023-07-20T08:25:36;20.80;99.90
4081;DHT22;2055;50.074;8.436;2023-07-20T08:28:05;20.60;99.90
4081;DHT22;2055;50.074;8.436;2023-07-20T08:30:43;20.50;99.90
4081;DHT22;2055;50.074;8.436;2023-07-20T08:33:10;20.20;99.90
4081;DHT22;2055;50.074;8.436;2023-07-20T08:35:36;20.10;99.90
4081;DHT22;2055;50.074;8.436;2023-07-20T08:38:02;20.30;99.90
4081;DHT22;2055;50.074;8.436;2023-07-20T08:40:31;20.80;99.90
4081;DHT22;2055;50.074;8.436;2023-07-20T08:42:58;21.20;99.90
4081;DHT22;2055;50.074;8.436;2023-07-20T08:45:27;21.10;99.90
4081;DHT22;2055;50.074;8.436;2023-07-20T08:47:56;20.80;99.90
4081;DHT22;2055;50.074;8.436;2023-07-20T08:50:21;20.90;99.90
4081;DHT22;2055;50.074;8.436;2023-07-20T08:52:48;21.20;99.90
4081;DHT22;2055;50.074;8.436;2023-07-20T08:55:15;21.40;99.90
4081;DHT22;2055;50.074;8.436;2023-07-20T08:57:41;21.30;99.90
4081;DHT22;2055;50.074;8.436;2023-07-20T09:00:09;21.10;99.90
4081;DHT22;2055;50.074;8.436;2023-07-20T09:02:39;21.10;99.90
4081;DHT22;2055;50.074;8.436;2023-07-20T09:05:08;21.20;99.90
4081;DHT22;2055;50.074;8.436;2023-07-20T09:07:35;21.90;99.90
4081;DHT22;2055;50.074;8.436;2023-07-20T09:10:01;22.30;99.90
4081;DHT22;2055;50.074;8.436;2023-07-20T09:12:32;22.50;99.90
4081;DHT22;2055;50.074;8.436;2023-07-20T09:14:58;22.30;99.90
4081;DHT22;2055;50.074;8.436;2023-07-20T09:17:25;22.10;99.90
4081;DHT22;2055;50.074;8.436;2023-07-20T09:19:51;21.90;99.90
4081;DHT22;2055;50.074;8.436;2023-07-20T09:22:17;21.30;99.90
4081;DHT22;2055;50.074;8.436;2023-07-20T09:24:43;21.20;99.90
4081;DHT22;2055;50.074;8.436;2023-07-20T09:27:12;21.00;99.90
4081;DHT22;2055;50.074;8.436;2023-07-20T09:29:51;21.30;99.90
4081;DHT22;2055;50.074;8.436;2023-07-20T09:32:20;22.20;99.90
4081;DHT22;2055;50.074;8.436;2023-07-20T09:34:52;23.00;99.90
4081;DHT22;2055;50.074;8.436;2023-07-20T09:37:22;23.20;99.90
4081;DHT22;2055;50.074;8.436;2023-07-20T09:39:48;23.00;99.90
4081;DHT22;2055;50.074;8.436;2023-07-20T09:42:15;22.40;99.90
4081;DHT22;2055;50.074;8.436;2023-07-20T09:44:43;22.30;99.90
4081;DHT22;2055;50.074;8.436;2023-07-20T09:47:09;21.80;99.90
4081;DHT22;2055;50.074;8.436;2023-07-20T09:49:42;21.50;99.90
4081;DHT22;2055;50.074;8.436;2023-07-20T09:52:11;21.30;99.90
4081;DHT22;2055;50.074;8.436;2023-07-20T09:54:40;20.90;99.90
4081;DHT22;2055;50.074;8.436;2023-07-20T09:57:11;20.70;99.90
4081;DHT22;2055;50.074;8.436;2023-07-20T09:59:39;20.10;99.90
4081;DHT22;2055;50.074;8.436;2023-07-20T10:02:11;20.90;99.90
4081;DHT22;2055;50.074;8.436;2023-07-20T10:04:41;21.80;99.90
4081;DHT22;2055;50.074;8.436;2023-07-20T10:07:10;23.50;99.90
4081;DHT22;2055;50.074;8.436;2023-07-20T10:09:38;23.90;99.90
4081;DHT22;2055;50.074;8.436;2023-07-20T10:12:06;23.60;99.90
4081;DHT22;2055;50.074;8.436;2023-07-20T10:14:35;23.70;99.90
4081;DHT22;2055;50.074;8.436;2023-07-20T10:17:09;23.10;99.90
4081;DHT22;2055;50.074;8.436;2023-07-20T10:19:49;22.50;99.90
4081;DHT22;2055;50.074;8.436;2023-07-20T10:22:27;22.70;99.90
4081;DHT22;2055;50.074;8.436;2023-07-20T10:24:54;23.10;99.90
4081;DHT22;2055;50.074;8.436;2023-07-20T10:27:22;22.70;99.90
4081;DHT22;2055;50.074;8.436;2023-07-20T10:29:48;22.80;99.90
4081;DHT22;2055;50.074;8.436;2023-07-20T10:32:16;22.60;99.90
4081;DHT22;2055;50.074;8.436;2023-07-20T10:34:42;22.30;99.90
4081;DHT22;2055;50.074;8.436;2023-07-20T10:37:07;22.00;99.90
4081;DHT22;2055;50.074;8.436;2023-07-20T10:39:34;22.40;99.90
4081;DHT22;2055;50.074;8.436;2023-07-20T10:42:06;22.90;99.90
4081;DHT22;2055;50.074;8.436;2023-07-20T10:44:32;22.80;99.90
4081;DHT22;2055;50.074;8.436;2023-07-20T10:47:09;22.70;99.90
4081;DHT22;2055;50.074;8.436;2023-07-20T10:49:38;22.40;99.90
4081;DHT22;2055;50.074;8.436;2023-07-20T10:52:24;21.90;99.90
4081;DHT22;2055;50.074;8.436;2023-07-20T10:54:49;22.40;99.90
4081;DHT22;2055;50.074;8.436;2023-07-20T10:57:28;22.20;99.90
4081;DHT22;2055;50.074;8.436;2023-07-20T11:00:08;22.10;99.90
4081;DHT22;2055;50.074;8.436;2023-07-20T11:02:49;22.50;99.90
4081;DHT22;2055;50.074;8.436;2023-07-20T11:05:38;22.50;99.90
4081;DHT22;2055;50.074;8.436;2023-07-20T11:08:09;23.20;99.90
4081;DHT22;2055;50.074;8.436;2023-07-20T11:10:35;23.10;99.90
4081;DHT22;2055;50.074;8.436;2023-07-20T11:13:20;23.00;99.90
4081;DHT22;2055;50.074;8.436;2023-07-20T11:15:53;22.90;99.90
4081;DHT22;2055;50.074;8.436;2023-07-20T11:18:26;22.70;99.90
4081;DHT22;2055;50.074;8.436;2023-07-20T11:20:53;22.50;99.90
4081;DHT22;2055;50.074;8.436;2023-07-20T11:23:22;22.90;99.90
4081;DHT22;2055;50.074;8.436;2023-07-20T11:25:48;23.50;99.90
4081;DHT22;2055;50.074;8.436;2023-07-20T11:28:13;24.00;99.90
4081;DHT22;2055;50.074;8.436;2023-07-20T11:30:39;24.00;99.90
4081;DHT22;2055;50.074;8.436;2023-07-20T11:33:05;24.30;99.90
4081;DHT22;2055;50.074;8.436;2023-07-20T11:35:34;24.50;99.90
4081;DHT22;2055;50.074;8.436;2023-07-20T11:38:00;23.90;99.90
4081;DHT22;2055;50.074;8.436;2023-07-20T11:40:26;23.90;99.90
4081;DHT22;2055;50.074;8.436;2023-07-20T11:42:51;23.70;99.90
4081;DHT22;2055;50.074;8.436;2023-07-20T11:45:19;23.30;99.90
4081;DHT22;2055;50.074;8.436;2023-07-20T11:47:45;23.00;99.90
4081;DHT22;2055;50.074;8.436;2023-07-20T11:50:11;23.50;99.90
4081;DHT22;2055;50.074;8.436;2023-07-20T11:52:39;24.00;99.90
4081;DHT22;2055;50.074;8.436;2023-07-20T11:55:06;24.30;99.90
4081;DHT22;2055;50.074;8.436;2023-07-20T11:57:35;24.50;99.90
4081;DHT22;2055;50.074;8.436;2023-07-20T12:00:03;24.30;99.90
4081;DHT22;2055;50.074;8.436;2023-07-20T12:02:34;24.20;99.90
4081;DHT22;2055;50.074;8.436;2023-07-20T12:04:59;23.90;99.90
4081;DHT22;2055;50.074;8.436;2023-07-20T12:07:27;23.20;99.90
4081;DHT22;2055;50.074;8.436;2023-07-20T12:10:06;22.50;99.90
4081;DHT22;2055;50.074;8.436;2023-07-20T12:12:39;22.30;99.90
4081;DHT22;2055;50.074;8.436;2023-07-20T12:15:16;22.60;99.90
4081;DHT22;2055;50.074;8.436;2023-07-20T12:17:43;22.60;99.90
4081;DHT22;2055;50.074;8.436;2023-07-20T12:20:10;22.70;99.90
4081;DHT22;2055;50.074;8.436;2023-07-20T12:22:39;22.80;99.90
4081;DHT22;2055;50.074;8.436;2023-07-20T12:25:06;23.30;99.90
4081;DHT22;2055;50.074;8.436;2023-07-20T12:27:35;23.10;99.90
4081;DHT22;2055;50.074;8.436;2023-07-20T12:30:01;24.40;99.90
4081;DHT22;2055;50.074;8.436;2023-07-20T12:32:28;24.50;99.90
4081;DHT22;2055;50.074;8.436;2023-07-20T12:34:53;24.60;99.90
4081;DHT22;2055;50.074;8.436;2023-07-20T12:37:19;24.40;99.90
4081;DHT22;2055;50.074;8.436;2023-07-20T12:39:45;24.20;99.90
4081;DHT22;2055;50.074;8.436;2023-07-20T12:42:12;24.10;99.90
4081;DHT22;2055;50.074;8.436;2023-07-20T12:44:40;24.20;99.90
4081;DHT22;2055;50.074;8.436;2023-07-20T12:47:06;24.50;99.90
4081;DHT22;2055;50.074;8.436;2023-07-20T12:49:32;24.50;99.90
4081;DHT22;2055;50.074;8.436;2023-07-20T12:51:58;24.60;99.90
4081;DHT22;2055;50.074;8.436;2023-07-20T12:54:24;26.10;99.90
4081;DHT22;2055;50.074;8.436;2023-07-20T12:56:49;26.70;99.90
4081;DHT22;2055;50.074;8.436;2023-07-20T12:59:15;26.80;99.90
4081;DHT22;2055;50.074;8.436;2023-07-20T13:01:40;26.60;99.90
4081;DHT22;2055;50.074;8.436;2023-07-20T13:04:07;27.90;99.90
4081;DHT22;2055;50.074;8.436;2023-07-20T13:06:34;29.50;99.90
4081;DHT22;2055;50.074;8.436;2023-07-20T13:09:00;30.70;99.20
4081;DHT22;2055;50.074;8.436;2023-07-20T13:11:26;31.60;98.30
4081;DHT22;2055;50.074;8.436;2023-07-20T13:13:51;31.40;94.00
4081;DHT22;2055;50.074;8.436;2023-07-20T13:16:17;30.00;93.60
4081;DHT22;2055;50.074;8.436;2023-07-20T13:18:43;30.00;92.60
4081;DHT22;2055;50.074;8.436;2023-07-20T13:21:08;28.70;92.10
4081;DHT22;2055;50.074;8.436;2023-07-20T13:23:36;26.60;94.20
4081;DHT22;2055;50.074;8.436;2023-07-20T13:26:04;26.00;95.10
4081;DHT22;2055;50.074;8.436;2023-07-20T13:28:30;26.60;95.10
4081;DHT22;2055;50.074;8.436;2023-07-20T13:30:55;26.40;95.10
4081;DHT22;2055;50.074;8.436;2023-07-20T13:33:21;25.60;95.30
4081;DHT22;2055;50.074;8.436;2023-07-20T13:35:46;25.10;96.30
4081;DHT22;2055;50.074;8.436;2023-07-20T13:38:12;26.70;97.30
4081;DHT22;2055;50.074;8.436;2023-07-20T13:40:38;27.70;96.70
4081;DHT22;2055;50.074;8.436;2023-07-20T13:43:03;28.50;95.10
4081;DHT22;2055;50.074;8.436;2023-07-20T13:45:29;29.90;93.30
4081;DHT22;2055;50.074;8.436;2023-07-20T13:47:54;28.90;91.30
4081;DHT22;2055;50.074;8.436;2023-07-20T13:50:20;28.00;93.60
4081;DHT22;2055;50.074;8.436;2023-07-20T13:52:46;27.20;93.90
4081;DHT22;2055;50.074;8.436;2023-07-20T13:55:12;26.50;93.50
4081;DHT22;2055;50.074;8.436;2023-07-20T13:57:37;26.20;94.60
4081;DHT22;2055;50.074;8.436;2023-07-20T14:00:04;25.60;94.60
4081;DHT22;2055;50.074;8.436;2023-07-20T14:02:30;25.60;93.90
4081;DHT22;2055;50.074;8.436;2023-07-20T14:04:55;25.40;94.30
4081;DHT22;2055;50.074;8.436;2023-07-20T14:07:22;25.60;95.10
4081;DHT22;2055;50.074;8.436;2023-07-20T14:09:48;24.90;95.30
4081;DHT22;2055;50.074;8.436;2023-07-20T14:12:13;24.70;94.60
4081;DHT22;2055;50.074;8.436;2023-07-20T14:14:40;23.90;94.10
4081;DHT22;2055;50.074;8.436;2023-07-20T14:17:07;23.80;96.00
4081;DHT22;2055;50.074;8.436;2023-07-20T14:19:33;24.00;97.40
4081;DHT22;2055;50.074;8.436;2023-07-20T14:21:59;24.10;95.60
4081;DHT22;2055;50.074;8.436;2023-07-20T14:24:25;24.60;96.30
4081;DHT22;2055;50.074;8.436;2023-07-20T14:26:51;24.30;96.00
4081;DHT22;2055;50.074;8.436;2023-07-20T14:29:16;24.40;95.60
4081;DHT22;2055;50.074;8.436;2023-07-20T14:31:43;24.50;95.30
4081;DHT22;2055;50.074;8.436;2023-07-20T14:34:12;24.70;95.10
4081;DHT22;2055;50.074;8.436;2023-07-20T14:36:37;24.40;94.30
4081;DHT22;2055;50.074;8.436;2023-07-20T14:39:03;24.80;94.80
4081;DHT22;2055;50.074;8.436;2023-07-20T14:41:32;24.90;95.80
4081;DHT22;2055;50.074;8.436;2023-07-20T14:43:57;24.70;94.40
4081;DHT22;2055;50.074;8.436;2023-07-20T14:46:23;24.70;94.50
4081;DHT22;2055;50.074;8.436;2023-07-20T14:48:48;24.80;93.80
4081;DHT22;2055;50.074;8.436;2023-07-20T14:51:14;24.60;93.90
4081;DHT22;2055;50.074;8.436;2023-07-20T14:53:39;24.60;93.60
4081;DHT22;2055;50.074;8.436;2023-07-20T14:56:05;24.60;95.90
4081;DHT22;2055;50.074;8.436;2023-07-20T14:58:31;24.50;95.10
4081;DHT22;2055;50.074;8.436;2023-07-20T15:00:57;24.50;95.90
4081;DHT22;2055;50.074;8.436;2023-07-20T15:03:23;24.30;94.90
4081;DHT22;2055;50.074;8.436;2023-07-20T15:05:48;24.30;94.70
4081;DHT22;2055;50.074;8.436;2023-07-20T15:08:17;24.60;95.40
4081;DHT22;2055;50.074;8.436;2023-07-20T15:10:42;24.70;95.20
4081;DHT22;2055;50.074;8.436;2023-07-20T15:13:12;24.80;93.80
4081;DHT22;2055;50.074;8.436;2023-07-20T15:15:38;24.80;93.20
4081;DHT22;2055;50.074;8.436;2023-07-20T15:18:03;24.50;95.30
4081;DHT22;2055;50.074;8.436;2023-07-20T15:20:29;24.20;93.90
4081;DHT22;2055;50.074;8.436;2023-07-20T15:22:57;24.00;94.10
4081;DHT22;2055;50.074;8.436;2023-07-20T15:25:22;24.20;94.10
4081;DHT22;2055;50.074;8.436;2023-07-20T15:27:48;24.60;93.70
4081;DHT22;2055;50.074;8.436;2023-07-20T15:30:14;26.30;94.10
4081;DHT22;2055;50.074;8.436;2023-07-20T15:32:40;27.80;92.70
4081;DHT22;2055;50.074;8.436;2023-07-20T15:35:09;28.40;91.80
4081;DHT22;2055;50.074;8.436;2023-07-20T15:37:35;28.20;88.60
4081;DHT22;2055;50.074;8.436;2023-07-20T15:40:02;28.30;90.10
4081;DHT22;2055;50.074;8.436;2023-07-20T15:42:30;28.80;91.00
4081;DHT22;2055;50.074;8.436;2023-07-20T15:44:56;27.90;88.30
4081;DHT22;2055;50.074;8.436;2023-07-20T15:47:22;26.80;90.40
4081;DHT22;2055;50.074;8.436;2023-07-20T15:49:48;26.40;90.20
4081;DHT22;2055;50.074;8.436;2023-07-20T15:52:14;26.10;90.60
4081;DHT22;2055;50.074;8.436;2023-07-20T15:54:40;26.10;91.10
4081;DHT22;2055;50.074;8.436;2023-07-20T15:57:06;26.10;90.70
4081;DHT22;2055;50.074;8.436;2023-07-20T15:59:33;25.90;90.50
4081;DHT22;2055;50.074;8.436;2023-07-20T16:02:00;26.00;91.50
4081;DHT22;2055;50.074;8.436;2023-07-20T16:04:25;26.20;91.20
4081;DHT22;2055;50.074;8.436;2023-07-20T16:06:51;26.10;91.30